Time;durP1;ratioP1;P1;durP2;ratioP2;P2;SDS_P1;SDS_P2;PMS_P1;PMS_P2;Temp;Humidity;BMP_temperature;BMP_pressure;BME280_temperature;BME280_humidity;BME280_pressure;Samples;Min_cycle;Max_cycle;Signal;HPM_P1;HPM_P2
2022/04/09 00:00:30;;;;;;;13.23;1.83;;;2.50;99.90;;;;;;5028997;28;20147;-47
2022/04/09 00:02:57;;;;;;;9.27;1.42;;;2.40;99.90;;;;;;5029184;28;20053;-47
2022/04/09 00:05:22;;;;;;;10.10;1.40;;;2.40;99.90;;;;;;5028799;28;20037;-47
2022/04/09 00:07:48;;;;;;;19.13;2.17;;;2.40;99.90;;;;;;5028908;28;20462;-45
2022/04/09 00:10:14;;;;;;;16.92;1.70;;;2.60;99.90;;;;;;5027886;28;20037;-46
2022/04/09 00:12:45;;;;;;;8.75;1.85;;;2.70;99.90;;;;;;5028065;28;20061;-45
2022/04/09 00:15:12;;;;;;;12.85;1.33;;;2.70;99.90;;;;;;5028194;28;20075;-46
2022/04/09 00:17:39;;;;;;;10.40;1.13;;;2.70;99.90;;;;;;5028102;28;20046;-45
2022/04/09 00:20:05;;;;;;;9.48;2.08;;;3.50;99.90;;;;;;5028035;28;20042;-45
2022/04/09 00:22:31;;;;;;;17.92;2.30;;;2.80;99.90;;;;;;5027907;28;20038;-45
2022/04/09 00:24:57;;;;;;;14.85;1.65;;;2.80;99.90;;;;;;5028470;28;20038;-47
2022/04/09 00:27:23;;;;;;;8.98;2.28;;;2.80;99.90;;;;;;5028790;28;20060;-46
2022/04/09 00:29:49;;;;;;;7.63;1.55;;;2.80;99.90;;;;;;5028484;28;20479;-46
2022/04/09 00:32:15;;;;;;;11.27;3.05;;;2.80;99.90;;;;;;5028649;28;20056;-47
2022/04/09 00:34:40;;;;;;;11.82;1.13;;;2.70;99.90;;;;;;5028793;28;20060;-47
2022/04/09 00:37:06;;;;;;;10.35;1.40;;;2.70;99.90;;;;;;5028057;28;20084;-48
2022/04/09 00:39:32;;;;;;;8.77;1.10;;;2.60;99.90;;;;;;5028370;28;20048;-47
2022/04/09 00:41:57;;;;;;;11.82;1.23;;;2.50;99.90;;;;;;5028483;28;20506;-47
2022/04/09 00:44:23;;;;;;;7.80;1.20;;;2.40;99.90;;;;;;5028262;28;20391;-46
2022/04/09 00:46:49;;;;;;;7.35;1.55;;;2.30;99.90;;;;;;5027920;28;20050;-46
2022/04/09 00:49:16;;;;;;;9.95;1.50;;;2.30;99.90;;;;;;5026054;28;20110;-48
2022/04/09 00:51:44;;;;;;;12.27;2.15;;;2.30;99.90;;;;;;5027345;28;20080;-45
2022/04/09 00:54:11;;;;;;;9.93;1.63;;;2.30;99.90;;;;;;5027582;28;20045;-46
2022/04/09 00:56:38;;;;;;;11.15;1.67;;;2.20;99.90;;;;;;5027376;28;20076;-46
2022/04/09 00:59:06;;;;;;;11.15;1.35;;;2.20;99.90;;;;;;5027625;28;20056;-46
2022/04/09 01:01:37;;;;;;;10.20;1.80;;;2.20;99.90;;;;;;5026165;28;20041;-46
2022/04/09 01:04:07;;;;;;;12.98;1.45;;;2.20;99.90;;;;;;5027500;28;20042;-46
2022/04/09 01:06:34;;;;;;;9.48;1.30;;;2.20;99.90;;;;;;5027385;28;20438;-47
2022/04/09 01:09:00;;;;;;;10.18;1.55;;;2.60;99.90;;;;;;5027463;28;20037;-47
2022/04/09 01:11:26;;;;;;;12.75;1.38;;;2.40;99.90;;;;;;5026956;28;20041;-46
2022/04/09 01:13:53;;;;;;;12.75;1.75;;;2.50;99.90;;;;;;5027866;28;20087;-47
2022/04/09 01:16:18;;;;;;;12.63;1.38;;;2.70;99.90;;;;;;5028068;28;20132;-46
2022/04/09 01:18:44;;;;;;;8.98;1.38;;;2.70;99.90;;;;;;5028147;28;20128;-47
2022/04/09 01:21:11;;;;;;;4.55;1.08;;;2.70;99.90;;;;;;5027769;28;20060;-48
2022/04/09 01:23:37;;;;;;;8.52;0.95;;;2.40;99.90;;;;;;5027634;28;20452;-47
2022/04/09 01:26:04;;;;;;;10.68;1.63;;;2.80;99.90;;;;;;5027947;28;20487;-48
2022/04/09 01:28:31;;;;;;;8.35;0.82;;;2.90;99.90;;;;;;5027861;28;20254;-47
2022/04/09 01:30:57;;;;;;;6.15;1.30;;;2.80;99.90;;;;;;5027684;28;20054;-46
2022/04/09 01:33:23;;;;;;;6.18;1.13;;;2.70;99.90;;;;;;5027599;28;20041;-46
2022/04/09 01:35:50;;;;;;;9.55;1.25;;;2.60;99.90;;;;;;5027384;28;20557;-47
2022/04/09 01:38:16;;;;;;;4.55;0.93;;;2.50;99.90;;;;;;5027661;28;20487;-47
2022/04/09 01:40:42;;;;;;;7.10;0.65;;;2.40;99.90;;;;;;5027447;28;20399;-48
2022/04/09 01:43:08;;;;;;;8.18;0.80;;;2.30;99.90;;;;;;5027586;28;20049;-47
2022/04/09 01:45:35;;;;;;;12.55;1.10;;;2.20;99.90;;;;;;5027417;28;20053;-48
2022/04/09 01:48:00;;;;;;;5.88;2.25;;;2.20;99.90;;;;;;5028892;28;20058;-47
2022/04/09 01:50:26;;;;;;;14.80;1.15;;;2.10;99.90;;;;;;5030922;28;20045;-46
2022/04/09 01:52:53;;;;;;;4.45;0.70;;;2.10;99.90;;;;;;5030339;28;20530;-47
2022/04/09 01:55:20;;;;;;;8.63;1.50;;;2.00;99.90;;;;;;5030776;28;20042;-47
2022/04/09 01:57:47;;;;;;;9.07;1.60;;;2.10;99.90;;;;;;5030202;28;20488;-46
2022/04/09 02:00:13;;;;;;;6.88;1.10;;;2.00;99.90;;;;;;5030606;28;20049;-46
2022/04/09 02:02:39;;;;;;;8.70;0.85;;;2.00;99.90;;;;;;5030481;28;20079;-47
2022/04/09 02:05:06;;;;;;;9.70;1.02;;;2.00;99.90;;;;;;5031760;28;20041;-47
2022/04/09 02:07:31;;;;;;;9.18;1.50;;;2.00;99.90;;;;;;5031480;28;20041;-46
2022/04/09 02:09:57;;;;;;;6.10;0.50;;;2.00;99.90;;;;;;5030403;28;20038;-46
2022/04/09 02:12:23;;;;;;;8.15;0.77;;;1.90;99.90;;;;;;5028899;28;20040;-46
2022/04/09 02:14:49;;;;;;;3.25;0.80;;;1.90;99.90;;;;;;5029804;28;20053;-46
2022/04/09 02:17:15;;;;;;;7.60;0.60;;;1.90;99.90;;;;;;5030886;28;20045;-46
2022/04/09 02:19:40;;;;;;;7.63;0.70;;;1.80;99.90;;;;;;5031337;28;20060;-46
2022/04/09 02:22:06;;;;;;;12.02;1.20;;;1.80;99.90;;;;;;5031605;28;20674;-47
2022/04/09 02:24:32;;;;;;;4.60;0.80;;;1.70;99.90;;;;;;5031271;28;20066;-47
2022/04/09 02:26:58;;;;;;;9.65;1.02;;;1.60;99.90;;;;;;5030397;28;20418;-46
2022/04/09 02:29:24;;;;;;;11.73;1.38;;;1.60;99.90;;;;;;5030431;28;20041;-46
2022/04/09 02:31:53;;;;;;;8.63;1.50;;;1.60;99.90;;;;;;5031023;28;20100;-46
2022/04/09 02:34:18;;;;;;;6.32;0.98;;;5.20;99.90;;;;;;5031158;28;20052;-46
2022/04/09 02:36:44;;;;;;;10.40;1.80;;;1.60;99.90;;;;;;5030456;28;20045;-47
2022/04/09 02:39:10;;;;;;;10.57;1.55;;;1.70;99.90;;;;;;5030683;28;20582;-48
2022/04/09 02:41:35;;;;;;;8.10;0.80;;;1.80;99.90;;;;;;5030598;28;20045;-46
2022/04/09 02:44:02;;;;;;;13.35;1.60;;;1.80;99.90;;;;;;5030307;28;20065;-46
2022/04/09 02:46:28;;;;;;;5.38;0.65;;;1.90;99.90;;;;;;5030540;28;20836;-46
2022/04/09 02:48:53;;;;;;;10.93;1.10;;;1.90;99.90;;;;;;5030686;28;20116;-47
2022/04/09 02:51:19;;;;;;;4.60;0.73;;;1.90;99.90;;;;;;5030313;28;20045;-49
2022/04/09 02:53:45;;;;;;;6.90;0.80;;;1.90;99.90;;;;;;5030207;28;20053;-46
2022/04/09 02:56:11;;;;;;;11.13;1.55;;;1.80;99.90;;;;;;5030826;28;20053;-47
2022/04/09 02:58:36;;;;;;;8.15;1.70;;;1.80;99.90;;;;;;5030336;28;20038;-48
2022/04/09 03:01:02;;;;;;;11.73;2.72;;;1.80;99.90;;;;;;5029473;28;20091;-47
2022/04/09 03:03:28;;;;;;;6.07;1.02;;;1.80;99.90;;;;;;5030301;28;20079;-46
2022/04/09 03:05:53;;;;;;;13.00;1.42;;;1.70;99.90;;;;;;5028960;28;20068;-47
2022/04/09 03:08:19;;;;;;;5.50;1.35;;;1.70;99.90;;;;;;5029514;28;20040;-46
2022/04/09 03:10:45;;;;;;;7.55;1.20;;;1.60;99.90;;;;;;5029241;28;20056;-46
2022/04/09 03:13:11;;;;;;;9.43;1.17;;;1.60;99.90;;;;;;5029339;28;20050;-46
2022/04/09 03:15:36;;;;;;;12.32;1.38;;;1.60;99.90;;;;;;5029379;28;20049;-46
2022/04/09 03:18:02;;;;;;;13.05;1.45;;;1.60;99.90;;;;;;5028724;28;20037;-46
2022/04/09 03:20:28;;;;;;;7.72;1.63;;;1.60;99.90;;;;;;5029605;28;20046;-46
2022/04/09 03:22:53;;;;;;;11.32;1.27;;;1.60;99.90;;;;;;5028525;28;20053;-47
2022/04/09 03:25:20;;;;;;;10.55;1.05;;;1.60;99.90;;;;;;5029883;28;20047;-47
2022/04/09 03:27:45;;;;;;;7.47;1.10;;;1.60;99.90;;;;;;5029979;28;20038;-47
2022/04/09 03:30:11;;;;;;;7.18;1.00;;;1.60;99.90;;;;;;5029429;28;20056;-46
2022/04/09 03:32:38;;;;;;;12.20;1.02;;;1.50;99.90;;;;;;5027377;28;20099;-46
2022/04/09 03:35:06;;;;;;;11.93;2.30;;;1.60;99.90;;;;;;5029718;28;20048;-47
2022/04/09 03:37:35;;;;;;;22.35;3.28;;;1.60;99.90;;;;;;5029284;28;20620;-47
2022/04/09 03:40:02;;;;;;;11.10;1.40;;;1.80;99.90;;;;;;5029234;28;20053;-47
2022/04/09 03:42:28;;;;;;;10.57;1.30;;;1.90;99.90;;;;;;5029403;28;20565;-48
2022/04/09 03:44:53;;;;;;;10.63;1.60;;;2.00;99.90;;;;;;5027592;28;20088;-47
2022/04/09 03:47:19;;;;;;;13.57;1.52;;;2.10;99.90;;;;;;5028716;28;20081;-46
2022/04/09 03:49:45;;;;;;;9.50;2.10;;;2.10;99.90;;;;;;5028806;28;20431;-46
2022/04/09 03:52:10;;;;;;;10.13;1.67;;;2.00;99.90;;;;;;5029207;28;20183;-47
2022/04/09 03:54:38;;;;;;;7.75;1.05;;;2.00;99.90;;;;;;5029591;28;20049;-47
2022/04/09 03:57:04;;;;;;;7.75;1.50;;;2.00;99.90;;;;;;5028833;28;20037;-46
2022/04/09 03:59:29;;;;;;;11.48;1.25;;;2.00;99.90;;;;;;5028394;28;20516;-45
2022/04/09 04:01:55;;;;;;;17.85;1.70;;;1.90;99.90;;;;;;5028922;28;20041;-46
2022/04/09 04:04:21;;;;;;;16.25;1.63;;;2.00;99.90;;;;;;5028625;28;20049;-46
2022/04/09 04:06:48;;;;;;;13.23;1.48;;;1.90;99.90;;;;;;5028763;28;20041;-48
2022/04/09 04:09:16;;;;;;;10.85;1.20;;;1.90;99.90;;;;;;5028504;28;20088;-50
2022/04/09 04:11:45;;;;;;;11.95;1.30;;;1.80;99.90;;;;;;5028997;28;20090;-47
2022/04/09 04:14:11;;;;;;;12.43;1.27;;;1.80;99.90;;;;;;5027938;28;20045;-46
2022/04/09 04:16:40;;;;;;;8.25;1.10;;;1.80;99.90;;;;;;5028145;28;20491;-46
2022/04/09 04:19:06;;;;;;;19.10;1.75;;;1.80;99.90;;;;;;5027771;28;20515;-46
2022/04/09 04:21:32;;;;;;;9.20;1.17;;;2.90;99.90;;;;;;5028290;28;20057;-45
2022/04/09 04:23:57;;;;;;;8.40;0.60;;;1.80;99.90;;;;;;5027847;28;20049;-46
2022/04/09 04:26:23;;;;;;;9.02;1.00;;;1.80;99.90;;;;;;5028498;28;20168;-47
2022/04/09 04:28:49;;;;;;;10.20;1.25;;;1.80;99.90;;;;;;5028820;28;20037;-47
2022/04/09 04:31:16;;;;;;;8.93;0.90;;;1.80;99.90;;;;;;5028732;28;20106;-47
2022/04/09 04:33:42;;;;;;;7.32;1.02;;;1.70;99.90;;;;;;5029139;28;20072;-47
2022/04/09 04:36:07;;;;;;;8.40;0.95;;;1.70;99.90;;;;;;5028650;28;20475;-47
2022/04/09 04:38:33;;;;;;;4.75;0.80;;;1.60;99.90;;;;;;5028580;28;20124;-47
2022/04/09 04:41:00;;;;;;;8.85;0.60;;;1.70;99.90;;;;;;5028078;28;20049;-47
2022/04/09 04:43:25;;;;;;;8.10;0.93;;;1.70;99.90;;;;;;5028116;28;20045;-47
2022/04/09 04:45:51;;;;;;;13.40;0.68;;;1.60;99.90;;;;;;5027247;28;20056;-46
2022/04/09 04:48:20;;;;;;;8.90;1.63;;;1.60;99.90;;;;;;5028472;28;20037;-47
2022/04/09 04:50:46;;;;;;;8.35;1.50;;;1.70;99.90;;;;;;5028673;28;20041;-47
2022/04/09 04:53:12;;;;;;;3.63;0.40;;;1.80;99.90;;;;;;5028003;28;20076;-46
2022/04/09 04:55:38;;;;;;;6.47;1.05;;;1.80;99.90;;;;;;5027793;28;20137;-46
2022/04/09 04:58:04;;;;;;;7.40;0.80;;;1.90;99.90;;;;;;5026396;28;20523;-45
2022/04/09 05:00:30;;;;;;;11.60;1.60;;;1.80;99.90;;;;;;5028008;28;20148;-46
2022/04/09 05:02:58;;;;;;;10.02;1.05;;;1.80;99.90;;;;;;5026701;28;20107;-47
2022/04/09 05:05:23;;;;;;;10.02;0.70;;;1.80;99.90;;;;;;5028335;28;20038;-50
2022/04/09 05:07:51;;;;;;;6.50;0.95;;;1.80;99.90;;;;;;5028058;28;20036;-47
2022/04/09 05:10:21;;;;;;;9.95;0.82;;;1.90;99.90;;;;;;5028243;28;20112;-47
2022/04/09 05:12:48;;;;;;;5.78;0.88;;;1.90;99.90;;;;;;5028277;28;20092;-48
2022/04/09 05:15:15;;;;;;;10.70;0.75;;;1.80;99.90;;;;;;5028282;28;20037;-47
2022/04/09 05:17:42;;;;;;;11.57;0.95;;;1.90;99.90;;;;;;5028418;28;20038;-46
2022/04/09 05:20:11;;;;;;;8.30;0.73;;;2.10;99.90;;;;;;5027898;28;20041;-47
2022/04/09 05:22:38;;;;;;;8.02;0.85;;;2.50;99.90;;;;;;5029070;28;20064;-48
2022/04/09 05:25:05;;;;;;;8.18;0.95;;;3.20;99.90;;;;;;5032220;28;20054;-46
2022/04/09 05:27:31;;;;;;;5.18;0.77;;;3.80;99.90;;;;;;5031227;28;20495;-45
2022/04/09 05:29:57;;;;;;;7.90;0.70;;;4.10;99.90;;;;;;5031730;28;20052;-46
2022/04/09 05:32:23;;;;;;;5.85;0.50;;;4.30;99.90;;;;;;5031558;28;20089;-48
2022/04/09 05:34:49;;;;;;;6.80;0.88;;;4.50;99.90;;;;;;5032038;28;20045;-46
2022/04/09 05:37:16;;;;;;;8.52;0.70;;;4.50;99.90;;;;;;5030773;28;20387;-47
2022/04/09 05:39:43;;;;;;;9.25;0.60;;;4.80;99.90;;;;;;5032288;28;20179;-47
2022/04/09 05:42:09;;;;;;;10.90;1.00;;;4.70;99.90;;;;;;5032307;28;20729;-47
2022/04/09 05:44:35;;;;;;;5.65;0.65;;;6.30;99.90;;;;;;5031283;28;20187;-48
2022/04/09 05:47:01;;;;;;;9.35;1.67;;;5.40;99.90;;;;;;5031123;28;20108;-47
2022/04/09 05:49:27;;;;;;;5.22;1.15;;;6.10;99.90;;;;;;5031012;28;20030;-47
2022/04/09 05:51:53;;;;;;;4.60;0.88;;;7.70;99.90;;;;;;5031311;28;20037;-47
2022/04/09 05:54:19;;;;;;;6.15;0.70;;;7.20;99.90;;;;;;5030698;28;20585;-46
2022/04/09 05:56:45;;;;;;;6.97;0.82;;;7.70;99.90;;;;;;5031780;28;20163;-48
2022/04/09 05:59:11;;;;;;;8.23;0.43;;;9.10;99.90;;;;;;5031554;28;20056;-48
2022/04/09 06:01:37;;;;;;;4.82;0.60;;;8.20;99.90;;;;;;5031502;28;20555;-51
2022/04/09 06:04:02;;;;;;;11.07;1.23;;;8.50;99.90;;;;;;5031826;28;20187;-47
2022/04/09 06:06:28;;;;;;;6.25;0.73;;;8.40;99.90;;;;;;5031442;28;20060;-48
2022/04/09 06:08:55;;;;;;;7.68;0.90;;;8.80;99.90;;;;;;5031808;28;20068;-47
2022/04/09 06:11:21;;;;;;;7.72;0.38;;;9.20;99.90;;;;;;5031469;28;20072;-49
2022/04/09 06:13:46;;;;;;;15.20;1.02;;;9.50;99.90;;;;;;5031785;28;20544;-49
2022/04/09 06:16:12;;;;;;;5.80;0.73;;;9.60;99.90;;;;;;5031502;28;20044;-48
2022/04/09 06:18:41;;;;;;;5.85;1.00;;;9.60;99.90;;;;;;5031194;28;20172;-49
2022/04/09 06:21:08;;;;;;;6.57;0.65;;;8.20;99.90;;;;;;5031332;28;20052;-49
2022/04/09 06:23:34;;;;;;;5.15;0.60;;;7.20;99.90;;;;;;5030881;28;20041;-47
2022/04/09 06:26:00;;;;;;;10.63;0.95;;;7.50;99.90;;;;;;5030362;28;20124;-47
2022/04/09 06:28:26;;;;;;;6.65;0.60;;;6.80;99.90;;;;;;5028752;28;20164;-47
2022/04/09 06:30:52;;;;;;;9.05;1.23;;;5.20;99.90;;;;;;5030976;28;20052;-48
2022/04/09 06:33:20;;;;;;;8.50;0.80;;;5.00;99.90;;;;;;5031014;28;20139;-47
2022/04/09 06:35:47;;;;;;;8.15;0.80;;;4.80;99.90;;;;;;5031254;28;20091;-47
2022/04/09 06:38:14;;;;;;;5.78;1.27;;;4.60;99.90;;;;;;5030898;28;20118;-49
2022/04/09 06:40:39;;;;;;;6.22;0.60;;;4.50;99.90;;;;;;5031299;28;20103;-48
2022/04/09 06:43:06;;;;;;;6.10;0.70;;;4.50;99.90;;;;;;5031233;28;20049;-49
2022/04/09 06:45:33;;;;;;;13.95;0.93;;;4.40;99.90;;;;;;5030431;28;20046;-48
2022/04/09 06:47:59;;;;;;;11.23;1.23;;;4.50;99.90;;;;;;5030801;28;20079;-47
2022/04/09 06:50:24;;;;;;;8.55;1.63;;;4.70;99.90;;;;;;5030362;28;20037;-47
2022/04/09 06:52:50;;;;;;;4.82;0.63;;;5.70;99.90;;;;;;5030769;28;20046;-48
2022/04/09 06:55:16;;;;;;;13.00;0.68;;;7.10;99.90;;;;;;5030199;28;20526;-48
2022/04/09 06:57:42;;;;;;;8.20;1.17;;;7.60;99.90;;;;;;5030592;28;20434;-46
2022/04/09 07:00:11;;;;;;;8.18;1.40;;;7.90;99.90;;;;;;5030037;28;20049;-48
2022/04/09 07:02:37;;;;;;;9.80;0.70;;;8.50;99.90;;;;;;5030531;28;20041;-50
2022/04/09 07:05:04;;;;;;;6.35;1.35;;;9.10;99.90;;;;;;5030628;28;20134;-49
2022/04/09 07:07:29;;;;;;;9.02;1.00;;;9.40;99.90;;;;;;5029921;28;20049;-47
2022/04/09 07:10:04;;;;;;;7.50;0.90;;;9.80;99.90;;;;;;5030203;28;20029;-50
2022/04/09 07:12:30;;;;;;;6.97;0.70;;;9.10;99.90;;;;;;5028419;28;20499;-49
2022/04/09 07:14:55;;;;;;;7.68;0.80;;;8.40;99.90;;;;;;5029861;28;20046;-47
2022/04/09 07:17:21;;;;;;;4.28;0.40;;;9.10;99.90;;;;;;5029480;28;20046;-47
2022/04/09 07:19:47;;;;;;;3.53;0.90;;;8.20;99.90;;;;;;5030262;28;20049;-47
2022/04/09 07:22:13;;;;;;;10.13;1.23;;;8.10;99.90;;;;;;5029547;28;20046;-46
2022/04/09 07:24:38;;;;;;;8.40;1.00;;;7.90;99.90;;;;;;5028666;28;20041;-47
2022/04/09 07:27:04;;;;;;;5.70;1.00;;;7.80;99.90;;;;;;5028510;28;20041;-46
2022/04/09 07:29:30;;;;;;;6.53;1.40;;;7.70;99.90;;;;;;5028731;28;20038;-50
2022/04/09 07:31:56;;;;;;;2.80;0.68;;;7.50;99.90;;;;;;5029374;28;20375;-49
2022/04/09 07:34:21;;;;;;;7.47;0.80;;;7.40;99.90;;;;;;5028819;28;20076;-46
2022/04/09 07:36:47;;;;;;;8.80;0.82;;;7.50;99.90;;;;;;5028672;28;20045;-48
2022/04/09 07:39:13;;;;;;;5.72;1.00;;;8.00;99.90;;;;;;5029559;28;20121;-47
2022/04/09 07:41:39;;;;;;;9.82;2.13;;;7.70;99.90;;;;;;5029488;28;20116;-49
2022/04/09 07:44:05;;;;;;;8.70;1.20;;;8.00;99.90;;;;;;5029067;28;20059;-46
2022/04/09 07:46:31;;;;;;;8.55;0.70;;;8.20;99.90;;;;;;5028643;28;20841;-48
2022/04/09 07:48:56;;;;;;;14.10;0.80;;;8.50;99.90;;;;;;5029638;28;20072;-47
2022/04/09 07:51:22;;;;;;;8.85;0.52;;;8.50;99.90;;;;;;5029175;28;20045;-48
2022/04/09 07:53:48;;;;;;;10.07;0.60;;;9.70;99.90;;;;;;5029309;28;20049;-48
2022/04/09 07:56:13;;;;;;;6.15;0.77;;;8.80;99.90;;;;;;5029087;28;20037;-47
2022/04/09 07:58:41;;;;;;;8.40;1.00;;;8.90;99.90;;;;;;5029009;28;20051;-46
2022/04/09 08:01:07;;;;;;;7.32;0.65;;;8.70;99.90;;;;;;5028531;28;20108;-47
2022/04/09 08:03:33;;;;;;;7.45;0.75;;;8.40;99.90;;;;;;5028993;28;20053;-47
2022/04/09 08:05:58;;;;;;;6.03;0.52;;;9.00;99.90;;;;;;5029221;28;20045;-49
2022/04/09 08:08:24;;;;;;;8.13;0.90;;;8.20;99.90;;;;;;5028395;28;20041;-47
2022/04/09 08:10:51;;;;;;;4.60;0.80;;;8.70;99.90;;;;;;5027001;28;20472;-48
2022/04/09 08:13:17;;;;;;;5.70;0.25;;;8.90;99.90;;;;;;5029719;28;20107;-47
2022/04/09 08:15:43;;;;;;;6.93;0.60;;;9.40;99.90;;;;;;5028926;28;20176;-50
2022/04/09 08:18:10;;;;;;;9.60;0.60;;;10.00;99.90;;;;;;5028657;28;20128;-48
2022/04/09 08:20:37;;;;;;;6.68;0.40;;;10.40;99.90;;;;;;5028697;28;20041;-47
2022/04/09 08:23:03;;;;;;;8.98;0.73;;;11.10;99.90;;;;;;5029028;28;20380;-48
2022/04/09 08:25:29;;;;;;;7.35;0.80;;;11.50;99.90;;;;;;5028551;28;20104;-47
2022/04/09 08:27:55;;;;;;;9.27;2.15;;;11.90;99.90;;;;;;5028921;28;20069;-48
2022/04/09 08:30:22;;;;;;;8.73;0.60;;;11.50;99.90;;;;;;5028634;28;20168;-47
2022/04/09 08:32:49;;;;;;;8.93;0.80;;;11.70;99.90;;;;;;5028307;28;20130;-48
2022/04/09 08:35:16;;;;;;;5.75;1.15;;;11.70;99.90;;;;;;5028522;28;20037;-47
2022/04/09 08:37:42;;;;;;;4.72;0.45;;;12.30;99.90;;;;;;5028000;28;20049;-47
2022/04/09 08:40:14;;;;;;;5.95;0.95;;;13.50;99.90;;;;;;5027552;28;20132;-47
2022/04/09 08:42:39;;;;;;;6.80;0.70;;;14.00;99.90;;;;;;5027767;28;20049;-47
2022/04/09 08:45:06;;;;;;;8.27;1.20;;;14.20;99.90;;;;;;5027435;28;20052;-49
2022/04/09 08:47:35;;;;;;;4.30;0.25;;;14.30;98.40;;;;;;5028226;28;20502;-46
2022/04/09 08:50:02;;;;;;;7.47;0.73;;;13.80;97.00;;;;;;5027386;28;20487;-46
2022/04/09 08:52:29;;;;;;;3.67;0.40;;;12.60;96.80;;;;;;5026429;28;20051;-46
2022/04/09 08:54:54;;;;;;;3.78;0.63;;;11.90;97.10;;;;;;5028656;28;20675;-47
2022/04/09 08:57:20;;;;;;;9.95;0.57;;;12.80;98.90;;;;;;5027743;28;20060;-49
2022/04/09 08:59:46;;;;;;;9.90;0.98;;;13.40;98.10;;;;;;5028577;28;20033;-49
2022/04/09 09:02:12;;;;;;;7.70;0.80;;;12.60;95.50;;;;;;5028434;28;20393;-47
2022/04/09 09:04:37;;;;;;;8.63;1.77;;;11.70;96.40;;;;;;5028003;28;20128;-49
2022/04/09 09:07:24;;;;;;;10.52;1.25;;;12.20;98.40;;;;;;5028507;28;20670;-50
2022/04/09 09:09:51;;;;;;;3.85;0.52;;;13.60;96.80;;;;;;5028327;28;20111;-46
2022/04/09 09:12:30;;;;;;;7.20;0.77;;;14.90;95.50;;;;;;5024984;28;20037;-41
2022/04/09 09:14:57;;;;;;;5.93;0.60;;;15.00;91.70;;;;;;5025359;28;20037;-43
2022/04/09 09:17:29;;;;;;;7.05;0.50;;;14.20;86.70;;;;;;5027523;28;20472;-43
2022/04/09 09:19:56;;;;;;;7.38;0.63;;;13.20;87.90;;;;;;5028227;28;20507;-48
2022/04/09 09:22:21;;;;;;;4.40;0.43;;;13.50;91.10;;;;;;5028217;28;20049;-49
2022/04/09 09:25:09;;;;;;;2.53;0.50;;;14.90;90.90;;;;;;5028019;28;20056;-44
2022/04/09 09:27:35;;;;;;;9.68;0.75;;;15.90;90.10;;;;;;5028144;28;20134;-45
2022/04/09 09:30:02;;;;;;;6.20;0.40;;;16.80;89.20;;;;;;5027985;28;20128;-43
2022/04/09 09:32:31;;;;;;;6.80;1.15;;;17.00;83.40;;;;;;5028219;28;20073;-41
2022/04/09 09:34:59;;;;;;;8.15;0.95;;;15.90;82.20;;;;;;5028575;28;20482;-48
2022/04/09 09:37:28;;;;;;;10.93;0.65;;;14.30;86.50;;;;;;5028445;28;20259;-42
2022/04/09 09:39:54;;;;;;;7.97;1.00;;;12.40;90.20;;;;;;5028185;28;20132;-43
2022/04/09 09:42:21;;;;;;;7.88;0.93;;;10.70;97.40;;;;;;5028255;28;20561;-43
2022/04/09 09:44:48;;;;;;;13.27;0.57;;;8.90;95.70;;;;;;5028356;28;20057;-45
2022/04/09 09:47:15;;;;;;;5.30;0.63;;;7.90;99.90;;;;;;5028391;28;20037;-43
2022/04/09 09:49:56;;;;;;;5.47;0.30;;;7.60;99.90;;;;;;5027701;28;20060;-44
2022/04/09 09:52:25;;;;;;;4.50;0.30;;;8.00;99.90;;;;;;5029057;28;20080;-46
2022/04/09 09:54:57;;;;;;;8.13;0.45;;;7.90;99.90;;;;;;5028161;28;20050;-44
2022/04/09 09:57:26;;;;;;;5.07;0.40;;;7.70;99.90;;;;;;5027647;28;20046;-45
2022/04/09 10:00:07;;;;;;;3.80;0.50;;;7.00;99.90;;;;;;5027588;28;20045;-46
2022/04/09 10:02:33;;;;;;;5.07;0.20;;;6.40;99.90;;;;;;5027243;28;20041;-44
2022/04/09 10:04:59;;;;;;;6.90;0.25;;;6.30;99.90;;;;;;5027179;28;20104;-42
2022/04/09 10:07:35;;;;;;;5.82;0.35;;;7.60;99.90;;;;;;5028049;28;20034;-43
2022/04/09 10:10:02;;;;;;;5.28;0.47;;;8.30;99.90;;;;;;5029926;28;20081;-43
2022/04/09 10:12:28;;;;;;;6.57;0.40;;;10.00;99.90;;;;;;5031753;28;20095;-43
2022/04/09 10:14:59;;;;;;;5.95;0.60;;;11.40;99.90;;;;;;5031354;28;20045;-45
2022/04/09 10:17:27;;;;;;;5.25;0.40;;;12.50;99.90;;;;;;5031645;28;20041;-47
2022/04/09 10:19:58;;;;;;;10.40;1.73;;;13.60;99.90;;;;;;5030428;28;20053;-44
2022/04/09 10:22:29;;;;;;;5.25;0.60;;;14.90;99.90;;;;;;5031754;28;20096;-44
2022/04/09 10:25:08;;;;;;;4.45;0.20;;;14.90;99.90;;;;;;5031473;28;20081;-44
2022/04/09 10:27:35;;;;;;;2.55;0.22;;;13.80;99.90;;;;;;5030839;28;20037;-47
2022/04/09 10:30:04;;;;;;;3.35;0.20;;;12.50;99.90;;;;;;5031356;28;20046;-45
2022/04/09 10:32:40;;;;;;;3.67;0.20;;;11.70;99.90;;;;;;5031703;28;20073;-46
2022/04/09 10:35:40;;;;;;;5.38;0.65;;;10.80;99.90;;;;;;5031457;28;20068;-43
2022/04/09 10:38:09;;;;;;;4.60;0.20;;;9.30;99.90;;;;;;5029565;28;20057;-43
2022/04/09 10:40:44;;;;;;;6.03;0.50;;;8.50;99.90;;;;;;5031096;28;20080;-43
2022/04/09 10:43:37;;;;;;;5.00;0.30;;;7.90;99.90;;;;;;5031460;28;20090;-44
2022/04/09 10:46:04;;;;;;;1.77;0.20;;;8.00;99.90;;;;;;5030446;28;20542;-44
2022/04/09 10:48:42;;;;;;;3.92;0.60;;;8.40;99.90;;;;;;5031140;28;20090;-44
2022/04/09 10:51:12;;;;;;;4.68;0.40;;;8.30;99.90;;;;;;5030483;28;20080;-44
2022/04/09 10:53:46;;;;;;;2.92;0.20;;;8.40;99.90;;;;;;5031164;28;20096;-44
2022/04/09 10:56:24;;;;;;;2.65;0.20;;;8.40;99.90;;;;;;5031171;28;20084;-45
2022/04/09 10:59:16;;;;;;;2.78;0.32;;;8.60;99.90;;;;;;5030849;28;20052;-44
2022/04/09 11:01:48;;;;;;;4.10;0.25;;;8.80;99.90;;;;;;5030471;28;20050;-44
2022/04/09 11:04:29;;;;;;;5.65;0.20;;;8.80;99.90;;;;;;5030431;28;20059;-44
2022/04/09 11:07:14;;;;;;;3.50;0.40;;;8.70;99.90;;;;;;5030659;28;20041;-44
2022/04/09 11:09:44;;;;;;;7.50;0.75;;;8.70;99.90;;;;;;5030595;28;20099;-47
2022/04/09 11:12:11;;;;;;;4.70;0.47;;;8.60;99.90;;;;;;5030446;28;20041;-44
2022/04/09 11:14:50;;;;;;;5.38;0.50;;;8.30;99.90;;;;;;5030839;28;20087;-44
2022/04/09 11:17:23;;;;;;;3.42;0.65;;;8.60;99.90;;;;;;5031030;28;20083;-44
2022/04/09 11:19:49;;;;;;;5.38;0.30;;;8.30;99.90;;;;;;5030198;28;20048;-43
2022/04/09 11:22:15;;;;;;;3.65;0.40;;;6.00;99.90;;;;;;5030406;28;20041;-44
2022/04/09 11:24:41;;;;;;;2.50;1.13;;;8.10;99.90;;;;;;5030307;28;20041;-43
2022/04/09 11:27:07;;;;;;;2.67;0.22;;;9.30;99.90;;;;;;5030307;28;20048;-43
2022/04/09 11:29:34;;;;;;;2.92;0.20;;;8.60;99.90;;;;;;5030277;28;20046;-43
2022/04/09 11:32:01;;;;;;;8.45;0.50;;;10.00;99.90;;;;;;5030292;28;20730;-44
2022/04/09 11:34:27;;;;;;;7.18;0.63;;;9.60;99.90;;;;;;5030626;28;20128;-43
2022/04/09 11:37:12;;;;;;;5.55;0.45;;;9.90;99.90;;;;;;5030496;28;20049;-44
2022/04/09 11:39:42;;;;;;;4.18;0.20;;;9.80;99.90;;;;;;5030005;28;20129;-46
2022/04/09 11:42:09;;;;;;;3.60;0.30;;;9.50;99.90;;;;;;5029567;28;20171;-43
2022/04/09 11:44:40;;;;;;;5.55;0.63;;;8.80;99.90;;;;;;5029628;28;20053;-43
2022/04/09 11:47:17;;;;;;;13.55;0.73;;;8.20;99.90;;;;;;5029773;28;20368;-43
2022/04/09 11:49:50;;;;;;;8.18;0.65;;;7.80;99.90;;;;;;5029847;28;20052;-44
2022/04/09 11:52:29;;;;;;;6.22;0.45;;;7.30;99.90;;;;;;5029915;28;20077;-44
2022/04/09 11:54:56;;;;;;;5.40;0.20;;;7.30;99.90;;;;;;5029645;28;20056;-45
2022/04/09 11:57:22;;;;;;;6.00;0.40;;;8.20;99.90;;;;;;5029986;28;20049;-45
2022/04/09 11:59:53;;;;;;;6.68;0.30;;;7.80;99.90;;;;;;5028560;28;20057;-46
2022/04/09 12:02:24;;;;;;;6.40;0.50;;;8.10;99.90;;;;;;5029665;28;20526;-44
2022/04/09 12:04:50;;;;;;;5.70;0.35;;;8.10;99.90;;;;;;5029656;28;20048;-45
2022/04/09 12:07:17;;;;;;;4.72;0.40;;;8.00;99.90;;;;;;5029696;28;20096;-45
2022/04/09 12:09:43;;;;;;;5.03;0.25;;;8.00;99.90;;;;;;5029587;28;20494;-44
2022/04/09 12:12:09;;;;;;;6.20;0.82;;;7.70;99.90;;;;;;5029345;28;20080;-43
2022/04/09 12:14:35;;;;;;;3.95;0.30;;;8.00;99.90;;;;;;5028900;28;20491;-45
2022/04/09 12:17:15;;;;;;;6.47;0.60;;;8.90;99.90;;;;;;5029548;28;20056;-45
2022/04/09 12:19:44;;;;;;;5.82;1.00;;;8.70;99.90;;;;;;5029640;28;20088;-45
2022/04/09 12:22:17;;;;;;;5.07;0.40;;;9.20;99.90;;;;;;5029026;28;20099;-46
2022/04/09 12:24:50;;;;;;;2.33;0.20;;;9.80;99.90;;;;;;5029278;28;20052;-46
2022/04/09 12:27:16;;;;;;;5.05;0.25;;;10.10;99.90;;;;;;5029105;28;20041;-45
2022/04/09 12:29:53;;;;;;;3.70;0.40;;;10.30;99.90;;;;;;5029044;28;20088;-45
2022/04/09 12:32:23;;;;;;;4.90;0.40;;;10.20;99.90;;;;;;5028695;28;20042;-46
2022/04/09 12:34:54;;;;;;;6.57;0.57;;;10.60;99.90;;;;;;5028837;28;20041;-44
2022/04/09 12:37:21;;;;;;;5.27;0.40;;;9.80;99.90;;;;;;5024729;28;20049;-41
2022/04/09 12:39:47;;;;;;;4.90;0.40;;;8.70;99.90;;;;;;5025298;28;20091;-40
2022/04/09 12:42:15;;;;;;;6.75;1.25;;;8.50;99.90;;;;;;5028580;28;20049;-41
2022/04/09 12:44:41;;;;;;;6.63;0.40;;;8.40;99.90;;;;;;5028203;28;20045;-39
2022/04/09 12:47:08;;;;;;;3.03;0.20;;;8.00;99.90;;;;;;5028661;28;20091;-40
2022/04/09 12:49:36;;;;;;;5.28;0.30;;;8.00;99.90;;;;;;5028379;28;20077;-41
2022/04/09 12:52:04;;;;;;;3.40;0.20;;;8.20;99.90;;;;;;5027603;28;20041;-40
2022/04/09 12:54:32;;;;;;;7.72;0.35;;;8.50;99.90;;;;;;5028284;28;20045;-43